Time;durP1;ratioP1;P1;durP2;ratioP2;P2;SDS_P1;SDS_P2;PMS_P1;PMS_P2;Temp;Humidity;BMP_temperature;BMP_pressure;BME280_temperature;BME280_humidity;BME280_pressure;Samples;Min_cycle;Max_cycle;Signal;HPM_P1;HPM_P2
2022/09/16 00:00:41;;;;;;;3.87;3.43;;;;;;;;;;5035600;28;20222;-71
2022/09/16 00:03:08;;;;;;;4.67;3.73;;;;;;;;;;5035932;28;20210;-71
2022/09/16 00:05:36;;;;;;;4.20;3.40;;;;;;;;;;5035574;28;20206;-71
2022/09/16 00:08:03;;;;;;;3.83;3.33;;;;;;;;;;5036005;28;20305;-71
2022/09/16 00:10:29;;;;;;;4.57;3.73;;;;;;;;;;5035634;28;20417;-71
2022/09/16 00:12:56;;;;;;;5.50;4.50;;;;;;;;;;5035431;28;20210;-71
2022/09/16 00:15:22;;;;;;;5.00;4.47;;;;;;;;;;5036177;28;20234;-72
2022/09/16 00:17:48;;;;;;;7.57;4.87;;;;;;;;;;5035871;28;20213;-71
2022/09/16 00:20:15;;;;;;;4.77;4.37;;;;;;;;;;5035245;28;20710;-71
2022/09/16 00:22:41;;;;;;;9.10;4.43;;;;;;;;;;5035497;28;20202;-71
2022/09/16 00:25:07;;;;;;;5.07;4.10;;;;;;;;;;5035482;28;20210;-71
2022/09/16 00:27:34;;;;;;;4.30;3.90;;;;;;;;;;5035474;28;20216;-71
2022/09/16 00:30:00;;;;;;;5.53;4.20;;;;;;;;;;5035505;28;20356;-71
2022/09/16 00:32:26;;;;;;;4.70;3.97;;;;;;;;;;5035369;28;20212;-71
2022/09/16 00:34:53;;;;;;;5.23;3.90;;;;;;;;;;5035229;28;20206;-71
2022/09/16 00:37:19;;;;;;;6.00;4.70;;;;;;;;;;5035206;28;20206;-71
2022/09/16 00:39:48;;;;;;;7.87;5.10;;;;;;;;;;5034733;28;20230;-72
2022/09/16 00:42:14;;;;;;;4.30;3.90;;;;;;;;;;5035043;28;20228;-71
2022/09/16 00:44:52;;;;;;;6.17;4.10;;;;;;;;;;5034926;28;20292;-71
2022/09/16 00:47:39;;;;;;;4.60;4.20;;;;;;;;;;5035726;28;20560;-71
2022/09/16 00:50:08;;;;;;;5.50;4.20;;;;;;;;;;5024278;28;20233;-71
2022/09/16 00:52:35;;;;;;;4.97;4.27;;;;;;;;;;5035018;28;20573;-71
2022/09/16 00:55:03;;;;;;;4.67;3.93;;;;;;;;;;5034958;28;20206;-71
2022/09/16 00:57:29;;;;;;;4.83;4.17;;;;;;;;;;5034917;28;20297;-71
2022/09/16 00:59:56;;;;;;;5.30;4.67;;;;;;;;;;5034758;28;20229;-71
2022/09/16 01:02:23;;;;;;;5.83;4.23;;;;;;;;;;5034463;28;20213;-71
2022/09/16 01:05:00;;;;;;;4.87;3.70;;;;;;;;;;5034391;28;20210;-71
2022/09/16 01:07:31;;;;;;;4.90;4.43;;;;;;;;;;5034705;28;20202;-71
2022/09/16 01:09:57;;;;;;;5.90;4.20;;;;;;;;;;5034554;28;20226;-71
2022/09/16 01:12:24;;;;;;;4.83;3.80;;;;;;;;;;5034556;28;20210;-71
2022/09/16 01:14:53;;;;;;;5.03;4.03;;;;;;;;;;5034557;28;20205;-71
2022/09/16 01:17:28;;;;;;;7.03;4.10;;;;;;;;;;5034422;28;20234;-71
2022/09/16 01:20:13;;;;;;;7.13;4.70;;;;;;;;;;5034037;28;20701;-71
2022/09/16 01:22:48;;;;;;;6.27;4.53;;;;;;;;;;5034363;28;20219;-71
2022/09/16 01:25:33;;;;;;;5.63;3.83;;;;;;;;;;5033239;28;20200;-71
2022/09/16 01:27:59;;;;;;;4.80;4.17;;;;;;;;;;5034388;28;20213;-71
2022/09/16 01:30:31;;;;;;;4.70;4.13;;;;;;;;;;5034307;28;20241;-71
2022/09/16 01:33:20;;;;;;;5.77;4.50;;;;;;;;;;5034720;28;20206;-71
2022/09/16 01:35:49;;;;;;;9.30;4.70;;;;;;;;;;5033220;28;20204;-71
2022/09/16 01:38:15;;;;;;;6.07;4.67;;;;;;;;;;5033796;28;20213;-71
2022/09/16 01:41:03;;;;;;;5.13;4.67;;;;;;;;;;5034523;28;20222;-71
2022/09/16 01:43:38;;;;;;;5.33;4.53;;;;;;;;;;5032863;28;20190;-71
2022/09/16 01:46:13;;;;;;;7.80;5.13;;;;;;;;;;5034022;28;20212;-71
2022/09/16 01:48:40;;;;;;;4.80;4.40;;;;;;;;;;5033673;28;20201;-71
2022/09/16 01:51:26;;;;;;;6.27;4.47;;;;;;;;;;5032974;28;20229;-71
2022/09/16 01:53:52;;;;;;;6.63;4.23;;;;;;;;;;5033398;28;20304;-71
2022/09/16 01:56:42;;;;;;;5.00;4.37;;;;;;;;;;5033811;28;20217;-71
2022/09/16 01:59:10;;;;;;;6.97;4.90;;;;;;;;;;5033517;28;20645;-71
2022/09/16 02:01:44;;;;;;;4.87;3.93;;;;;;;;;;5034324;28;20216;-71
2022/09/16 02:04:13;;;;;;;4.33;3.80;;;;;;;;;;5033470;28;20198;-71
2022/09/16 02:06:42;;;;;;;5.80;3.70;;;;;;;;;;5033434;28;20210;-71
2022/09/16 02:09:11;;;;;;;5.53;3.67;;;;;;;;;;5033508;28;20210;-71
2022/09/16 02:11:38;;;;;;;6.53;3.63;;;;;;;;;;5033643;28;20226;-71
2022/09/16 02:14:14;;;;;;;6.93;3.97;;;;;;;;;;5033359;28;20661;-71
2022/09/16 02:16:50;;;;;;;3.73;3.03;;;;;;;;;;5033712;28;20205;-71
2022/09/16 02:19:19;;;;;;;6.13;3.40;;;;;;;;;;5032359;28;20212;-71
2022/09/16 02:21:46;;;;;;;5.13;3.20;;;;;;;;;;5033548;28;20201;-71
2022/09/16 02:24:17;;;;;;;5.03;2.97;;;;;;;;;;5032395;28;20280;-71
2022/09/16 02:26:50;;;;;;;4.83;3.00;;;;;;;;;;5033459;28;20684;-71
2022/09/16 02:29:21;;;;;;;3.83;2.70;;;;;;;;;;5033477;28;20193;-71
2022/09/16 02:31:48;;;;;;;3.80;3.23;;;;;;;;;;5033350;28;20217;-71
2022/09/16 02:34:16;;;;;;;3.20;2.90;;;;;;;;;;5033463;28;20205;-71
2022/09/16 02:36:45;;;;;;;4.70;3.10;;;;;;;;;;5033397;28;20214;-71
2022/09/16 02:39:14;;;;;;;3.10;2.80;;;;;;;;;;5033382;28;20206;-71
2022/09/16 02:41:41;;;;;;;5.43;3.30;;;;;;;;;;5033240;28;20209;-71
2022/09/16 02:44:08;;;;;;;7.27;3.83;;;;;;;;;;5033328;28;20284;-71
2022/09/16 02:46:34;;;;;;;5.20;3.00;;;;;;;;;;5033305;28;20206;-72
2022/09/16 02:49:06;;;;;;;6.07;3.30;;;;;;;;;;5032964;28;20217;-71
2022/09/16 02:51:38;;;;;;;4.13;3.07;;;;;;;;;;5032760;28;20232;-71
2022/09/16 02:54:11;;;;;;;4.83;2.90;;;;;;;;;;5033257;28;20210;-71
2022/09/16 02:56:38;;;;;;;5.77;2.97;;;;;;;;;;5033275;28;20190;-71
2022/09/16 02:59:05;;;;;;;3.93;2.83;;;;;;;;;;5033079;28;20571;-71
2022/09/16 03:01:33;;;;;;;3.73;3.00;;;;;;;;;;5033188;28;20198;-71
2022/09/16 03:03:59;;;;;;;4.50;3.20;;;;;;;;;;5036807;28;20267;-71
2022/09/16 03:06:27;;;;;;;4.70;3.27;;;;;;;;;;5036984;28;20210;-71
2022/09/16 03:08:55;;;;;;;4.57;2.97;;;;;;;;;;5036905;28;20209;-71
2022/09/16 03:11:24;;;;;;;4.27;3.30;;;;;;;;;;5035115;28;20239;-71
2022/09/16 03:14:00;;;;;;;5.97;3.40;;;;;;;;;;5036464;28;20688;-71
2022/09/16 03:16:32;;;;;;;4.07;3.33;;;;;;;;;;5035662;28;20190;-71
2022/09/16 03:19:14;;;;;;;3.67;3.20;;;;;;;;;;5036669;28;20216;-71
2022/09/16 03:21:47;;;;;;;4.37;3.57;;;;;;;;;;5036732;28;20186;-71
2022/09/16 03:24:32;;;;;;;3.40;3.10;;;;;;;;;;5036726;28;20198;-71
2022/09/16 03:27:03;;;;;;;6.53;3.33;;;;;;;;;;5036509;28;20217;-71
2022/09/16 03:29:35;;;;;;;5.90;3.37;;;;;;;;;;5035278;28;20248;-71
2022/09/16 03:32:09;;;;;;;5.63;3.23;;;;;;;;;;5036383;28;20260;-71
2022/09/16 03:34:44;;;;;;;4.33;3.07;;;;;;;;;;5035979;28;20190;-71
2022/09/16 03:37:13;;;;;;;6.90;3.17;;;;;;;;;;5036317;28;20212;-71
2022/09/16 03:39:40;;;;;;;4.07;3.13;;;;;;;;;;5035730;28;20396;-71
2022/09/16 03:42:09;;;;;;;5.87;3.27;;;;;;;;;;5036770;28;20218;-72
2022/09/16 03:44:36;;;;;;;4.00;3.33;;;;;;;;;;5036389;28;20206;-71
2022/09/16 03:47:03;;;;;;;7.13;3.17;;;;;;;;;;5036132;28;20260;-71
2022/09/16 03:49:29;;;;;;;3.50;2.60;;;;;;;;;;5036141;28;20233;-71
2022/09/16 03:51:56;;;;;;;3.47;3.10;;;;;;;;;;5036138;28;20214;-71
2022/09/16 03:54:22;;;;;;;4.17;2.73;;;;;;;;;;5035935;28;20206;-72
2022/09/16 03:56:49;;;;;;;5.80;2.93;;;;;;;;;;5035958;28;20210;-71
2022/09/16 03:59:15;;;;;;;3.50;2.90;;;;;;;;;;5036126;28;20217;-71
2022/09/16 04:01:42;;;;;;;5.13;2.80;;;;;;;;;;5035623;28;20243;-71
2022/09/16 04:04:08;;;;;;;7.00;3.10;;;;;;;;;;5035479;28;20205;-71
2022/09/16 04:06:34;;;;;;;4.87;2.83;;;;;;;;;;5035474;28;20206;-71
2022/09/16 04:09:05;;;;;;;3.20;2.60;;;;;;;;;;5035747;28;20307;-71
2022/09/16 04:11:33;;;;;;;5.93;2.53;;;;;;;;;;5035330;28;20701;-71
2022/09/16 04:13:59;;;;;;;3.80;2.73;;;;;;;;;;5035237;28;20226;-71
2022/09/16 04:16:26;;;;;;;3.67;2.60;;;;;;;;;;5035442;28;20202;-71
2022/09/16 04:18:52;;;;;;;3.60;2.50;;;;;;;;;;5034993;28;20205;-71
2022/09/16 04:21:18;;;;;;;4.60;2.60;;;;;;;;;;5035107;28;20232;-71
2022/09/16 04:23:45;;;;;;;3.87;2.33;;;;;;;;;;5035534;28;20205;-71
2022/09/16 04:26:11;;;;;;;5.30;2.60;;;;;;;;;;5034905;28;20731;-71
2022/09/16 04:28:38;;;;;;;3.10;2.30;;;;;;;;;;5035389;28;20206;-70
2022/09/16 04:31:05;;;;;;;5.83;2.53;;;;;;;;;;5035134;28;20240;-71
2022/09/16 04:33:33;;;;;;;3.00;2.60;;;;;;;;;;5035135;28;20210;-70
2022/09/16 04:36:07;;;;;;;7.10;2.77;;;;;;;;;;5035393;28;20217;-71
2022/09/16 04:38:33;;;;;;;3.47;2.60;;;;;;;;;;5035049;28;20228;-70
2022/09/16 04:41:03;;;;;;;5.97;2.67;;;;;;;;;;5034584;28;20589;-71
2022/09/16 04:43:29;;;;;;;2.73;2.50;;;;;;;;;;5034750;28;20595;-71
2022/09/16 04:45:56;;;;;;;2.77;2.50;;;;;;;;;;5034277;28;20224;-70
2022/09/16 04:48:22;;;;;;;3.13;2.70;;;;;;;;;;5034683;28;20210;-71
2022/09/16 04:50:48;;;;;;;5.03;2.93;;;;;;;;;;5034326;28;20242;-70
2022/09/16 04:53:14;;;;;;;4.83;2.90;;;;;;;;;;5034598;28;20202;-70
2022/09/16 04:55:41;;;;;;;4.50;2.70;;;;;;;;;;5034723;28;20208;-70
2022/09/16 04:58:07;;;;;;;4.17;3.07;;;;;;;;;;5034538;28;20206;-70
2022/09/16 05:00:33;;;;;;;3.63;3.03;;;;;;;;;;5034197;28;20225;-70
2022/09/16 05:03:00;;;;;;;4.47;3.37;;;;;;;;;;5034396;28;20214;-71
2022/09/16 05:05:26;;;;;;;4.33;2.83;;;;;;;;;;5034815;28;20208;-70
2022/09/16 05:07:52;;;;;;;5.00;3.20;;;;;;;;;;5035195;28;20205;-70
2022/09/16 05:10:19;;;;;;;4.33;2.83;;;;;;;;;;5033861;28;20230;-71
2022/09/16 05:12:50;;;;;;;5.10;3.20;;;;;;;;;;5033783;28;20322;-71
2022/09/16 05:15:16;;;;;;;4.93;3.43;;;;;;;;;;5033907;28;20201;-70
2022/09/16 05:17:42;;;;;;;6.43;3.50;;;;;;;;;;5034861;28;20596;-71
2022/09/16 05:20:09;;;;;;;6.73;3.10;;;;;;;;;;5034161;28;20568;-70
2022/09/16 05:22:35;;;;;;;6.40;3.50;;;;;;;;;;5034148;28;20202;-70
2022/09/16 05:25:02;;;;;;;5.13;3.67;;;;;;;;;;5033044;28;20209;-70
2022/09/16 05:27:30;;;;;;;5.83;3.20;;;;;;;;;;5033759;28;20202;-70
2022/09/16 05:29:56;;;;;;;4.87;3.47;;;;;;;;;;5033352;28;20312;-70
2022/09/16 05:32:22;;;;;;;8.07;3.80;;;;;;;;;;5033290;28;20233;-70
2022/09/16 05:34:49;;;;;;;5.57;3.57;;;;;;;;;;5033524;28;20210;-70
2022/09/16 05:37:15;;;;;;;6.57;3.80;;;;;;;;;;5033745;28;20271;-70
2022/09/16 05:39:42;;;;;;;4.47;3.47;;;;;;;;;;5033386;28;20230;-70
2022/09/16 05:42:09;;;;;;;4.67;3.40;;;;;;;;;;5033238;28;20206;-70
2022/09/16 05:44:35;;;;;;;5.73;3.50;;;;;;;;;;5033303;28;20206;-70
2022/09/16 05:47:02;;;;;;;4.67;3.50;;;;;;;;;;5033369;28;20220;-70
2022/09/16 05:49:28;;;;;;;5.50;3.37;;;;;;;;;;5033087;28;20238;-71
2022/09/16 05:51:54;;;;;;;6.27;3.40;;;;;;;;;;5033497;28;20218;-70
2022/09/16 05:54:23;;;;;;;7.73;3.47;;;;;;;;;;5033669;28;20221;-70
2022/09/16 05:56:50;;;;;;;6.90;3.73;;;;;;;;;;5033523;28;20210;-70
2022/09/16 05:59:17;;;;;;;4.13;3.40;;;;;;;;;;5033339;28;20685;-71
2022/09/16 06:01:43;;;;;;;6.33;3.70;;;;;;;;;;5033663;28;20213;-70
2022/09/16 06:04:11;;;;;;;6.33;3.60;;;;;;;;;;5033174;28;20287;-70
2022/09/16 06:06:38;;;;;;;7.57;3.70;;;;;;;;;;5033498;28;20210;-70
2022/09/16 06:09:08;;;;;;;7.50;3.60;;;;;;;;;;5033413;28;20221;-71
2022/09/16 06:11:39;;;;;;;6.53;3.20;;;;;;;;;;5033365;28;20236;-71
2022/09/16 06:14:05;;;;;;;5.80;3.53;;;;;;;;;;5033460;28;20209;-71
2022/09/16 06:16:32;;;;;;;4.77;3.10;;;;;;;;;;5033268;28;20255;-71
2022/09/16 06:18:59;;;;;;;5.47;3.30;;;;;;;;;;5032758;28;20213;-71
2022/09/16 06:21:26;;;;;;;6.13;3.40;;;;;;;;;;5032253;28;20225;-71
2022/09/16 06:23:53;;;;;;;4.70;3.50;;;;;;;;;;5031426;28;20782;-71
2022/09/16 06:26:20;;;;;;;5.73;3.60;;;;;;;;;;5031199;28;20571;-71
2022/09/16 06:28:47;;;;;;;5.60;3.83;;;;;;;;;;5031519;28;20212;-72
2022/09/16 06:31:14;;;;;;;6.63;4.20;;;;;;;;;;5032441;28;20237;-70
2022/09/16 06:33:41;;;;;;;5.90;3.70;;;;;;;;;;5032661;28;20222;-69
2022/09/16 06:36:08;;;;;;;4.50;3.40;;;;;;;;;;5033450;28;20201;-70
2022/09/16 06:38:35;;;;;;;6.90;3.50;;;;;;;;;;5037010;28;20211;-70
2022/09/16 06:41:02;;;;;;;5.67;3.43;;;;;;;;;;5036683;28;20237;-70
2022/09/16 06:43:28;;;;;;;4.80;3.50;;;;;;;;;;5037033;28;20209;-70
2022/09/16 06:46:02;;;;;;;4.60;3.40;;;;;;;;;;5036735;28;20210;-70
2022/09/16 06:48:28;;;;;;;4.60;3.60;;;;;;;;;;5037066;28;20213;-70
2022/09/16 06:50:59;;;;;;;5.77;3.67;;;;;;;;;;5036923;28;20236;-70
2022/09/16 06:53:25;;;;;;;6.00;3.50;;;;;;;;;;5037015;28;20819;-70
2022/09/16 06:55:52;;;;;;;7.67;3.40;;;;;;;;;;5036986;28;20211;-70
2022/09/16 06:58:18;;;;;;;5.13;3.50;;;;;;;;;;5036442;28;20702;-70
2022/09/16 07:00:44;;;;;;;6.47;3.27;;;;;;;;;;5036427;28;20732;-71
2022/09/16 07:03:10;;;;;;;7.20;3.07;;;;;;;;;;5036463;28;20211;-71
2022/09/16 07:05:37;;;;;;;5.00;3.03;;;;;;;;;;5036343;28;20219;-71
2022/09/16 07:08:03;;;;;;;5.77;3.27;;;;;;;;;;5036856;28;20207;-69
2022/09/16 07:10:30;;;;;;;6.10;3.60;;;;;;;;;;5036491;28;20223;-68
2022/09/16 07:12:56;;;;;;;6.40;3.57;;;;;;;;;;5036577;28;20228;-68
2022/09/16 07:15:23;;;;;;;6.57;3.40;;;;;;;;;;5036088;28;20258;-68
2022/09/16 07:17:53;;;;;;;4.80;3.50;;;;;;;;;;5036402;28;20571;-68
2022/09/16 07:20:19;;;;;;;5.43;3.67;;;;;;;;;;5036244;28;20226;-68
2022/09/16 07:22:49;;;;;;;6.57;4.63;;;;;;;;;;5036293;28;20297;-68
2022/09/16 07:25:15;;;;;;;6.73;4.03;;;;;;;;;;5036272;28;20213;-68
2022/09/16 07:27:42;;;;;;;5.67;4.13;;;;;;;;;;5036030;28;20577;-68
2022/09/16 07:30:08;;;;;;;7.17;4.20;;;;;;;;;;5036002;28;20778;-68
2022/09/16 07:32:34;;;;;;;6.13;4.83;;;;;;;;;;5036050;28;20688;-68
2022/09/16 07:35:01;;;;;;;9.53;4.73;;;;;;;;;;5036361;28;20557;-67
2022/09/16 07:37:27;;;;;;;8.73;5.23;;;;;;;;;;5036066;28;20209;-68
2022/09/16 07:39:53;;;;;;;7.43;5.50;;;;;;;;;;5035879;28;20237;-68
2022/09/16 07:42:20;;;;;;;6.27;5.37;;;;;;;;;;5035962;28;20198;-67
2022/09/16 07:44:46;;;;;;;6.37;4.53;;;;;;;;;;5035983;28;20204;-68
2022/09/16 07:47:12;;;;;;;5.93;4.63;;;;;;;;;;5036046;28;20674;-68
2022/09/16 07:49:39;;;;;;;8.53;5.33;;;;;;;;;;5035373;28;20238;-67
2022/09/16 07:52:05;;;;;;;8.83;4.90;;;;;;;;;;5035893;28;20639;-68
2022/09/16 07:54:32;;;;;;;8.13;5.13;;;;;;;;;;5035933;28;20233;-68
2022/09/16 07:56:58;;;;;;;8.47;5.40;;;;;;;;;;5035827;28;20202;-68
2022/09/16 07:59:24;;;;;;;7.73;5.80;;;;;;;;;;5035720;28;20230;-67
2022/09/16 08:01:50;;;;;;;7.33;5.43;;;;;;;;;;5036495;28;20217;-67
2022/09/16 08:04:18;;;;;;;7.60;4.67;;;;;;;;;;5035750;28;20206;-67
2022/09/16 08:06:44;;;;;;;6.63;5.67;;;;;;;;;;5035796;28;20213;-68
2022/09/16 08:09:10;;;;;;;7.90;6.43;;;;;;;;;;5035529;28;20227;-69
2022/09/16 08:11:37;;;;;;;9.47;6.27;;;;;;;;;;5035326;28;20203;-69
2022/09/16 08:14:03;;;;;;;12.77;6.83;;;;;;;;;;5035829;28;20207;-69
2022/09/16 08:16:29;;;;;;;8.53;6.00;;;;;;;;;;5035430;28;20575;-69
2022/09/16 08:18:57;;;;;;;11.03;6.77;;;;;;;;;;5035497;28;20565;-69
2022/09/16 08:21:25;;;;;;;10.33;6.23;;;;;;;;;;5035172;28;20254;-69
2022/09/16 08:23:51;;;;;;;6.77;5.80;;;;;;;;;;5035547;28;20215;-69
2022/09/16 08:26:18;;;;;;;7.73;6.97;;;;;;;;;;5035107;28;20212;-69
2022/09/16 08:28:45;;;;;;;10.53;5.47;;;;;;;;;;5035353;28;20215;-69
2022/09/16 08:31:12;;;;;;;9.13;5.47;;;;;;;;;;5035473;28;20281;-69
2022/09/16 08:33:39;;;;;;;9.67;5.77;;;;;;;;;;5034629;28;20698;-69
2022/09/16 08:36:14;;;;;;;9.67;5.60;;;;;;;;;;5034819;28;20663;-69
2022/09/16 08:38:41;;;;;;;7.17;4.97;;;;;;;;;;5033602;28;20207;-68
2022/09/16 08:41:17;;;;;;;6.80;4.90;;;;;;;;;;5035040;28;20319;-68
2022/09/16 08:44:03;;;;;;;7.77;5.50;;;;;;;;;;5034791;28;20187;-69
2022/09/16 08:46:36;;;;;;;8.17;6.00;;;;;;;;;;5024197;28;20207;-68
2022/09/16 08:49:02;;;;;;;7.60;6.90;;;;;;;;;;5034331;28;20216;-69
2022/09/16 08:51:28;;;;;;;10.67;6.93;;;;;;;;;;5034795;28;20233;-69
2022/09/16 08:54:00;;;;;;;7.83;6.53;;;;;;;;;;5034372;28;20233;-69
2022/09/16 08:56:28;;;;;;;11.63;6.13;;;;;;;;;;5034780;28;20208;-69
2022/09/16 08:58:55;;;;;;;6.97;5.83;;;;;;;;;;5034584;28;20214;-68
2022/09/16 09:01:35;;;;;;;6.13;4.83;;;;;;;;;;5033408;28;20233;-70
2022/09/16 09:04:02;;;;;;;7.70;4.73;;;;;;;;;;5034341;28;20263;-68
2022/09/16 09:06:35;;;;;;;5.83;5.33;;;;;;;;;;5034556;28;20221;-69
2022/09/16 09:09:22;;;;;;;7.17;5.77;;;;;;;;;;5034467;28;20597;-69
2022/09/16 09:11:51;;;;;;;6.13;5.53;;;;;;;;;;5033697;28;20265;-69
2022/09/16 09:14:28;;;;;;;6.53;4.53;;;;;;;;;;5034383;28;20235;-69
2022/09/16 09:17:00;;;;;;;3.77;2.73;;;;;;;;;;5034515;28;20212;-69
2022/09/16 09:19:46;;;;;;;4.27;3.43;;;;;;;;;;5034295;28;20235;-69
2022/09/16 09:22:31;;;;;;;6.33;3.67;;;;;;;;;;5032924;28;20188;-70
2022/09/16 09:25:15;;;;;;;4.50;4.00;;;;;;;;;;5034195;28;20208;-69
2022/09/16 09:27:47;;;;;;;4.97;4.20;;;;;;;;;;5033711;28;20684;-69
2022/09/16 09:30:24;;;;;;;4.73;3.87;;;;;;;;;;5034150;28;20229;-69
2022/09/16 09:32:50;;;;;;;7.13;4.33;;;;;;;;;;5033643;28;20786;-69
2022/09/16 09:35:22;;;;;;;6.93;3.90;;;;;;;;;;5034067;28;20216;-68
2022/09/16 09:37:54;;;;;;;6.43;4.60;;;;;;;;;;5033938;28;20576;-69
2022/09/16 09:40:31;;;;;;;5.33;3.77;;;;;;;;;;5032498;28;20229;-69
2022/09/16 09:43:07;;;;;;;5.20;4.27;;;;;;;;;;5033860;28;20190;-69
2022/09/16 09:45:36;;;;;;;5.47;4.13;;;;;;;;;;5033399;28;20668;-68
2022/09/16 09:48:12;;;;;;;6.60;4.27;;;;;;;;;;5034675;28;20227;-68
2022/09/16 09:50:46;;;;;;;7.43;3.83;;;;;;;;;;5032258;28;20240;-68
2022/09/16 09:53:15;;;;;;;5.13;3.90;;;;;;;;;;5033636;28;20308;-68
2022/09/16 09:55:42;;;;;;;5.00;3.97;;;;;;;;;;5034146;28;20680;-68
2022/09/16 09:58:17;;;;;;;4.07;3.40;;;;;;;;;;5033595;28;20276;-69
2022/09/16 10:00:43;;;;;;;6.83;3.53;;;;;;;;;;5034210;28;20265;-68
2022/09/16 10:03:17;;;;;;;4.10;2.87;;;;;;;;;;5033990;28;20208;-68
2022/09/16 10:05:46;;;;;;;6.13;3.93;;;;;;;;;;5033271;28;20537;-68
2022/09/16 10:08:13;;;;;;;5.90;3.80;;;;;;;;;;5033220;28;20210;-68
2022/09/16 10:10:45;;;;;;;4.97;3.30;;;;;;;;;;5033007;28;20232;-68
2022/09/16 10:13:13;;;;;;;5.73;3.67;;;;;;;;;;5033222;28;20217;-68
2022/09/16 10:15:39;;;;;;;5.83;3.50;;;;;;;;;;5033234;28;20239;-68
2022/09/16 10:18:11;;;;;;;4.80;3.57;;;;;;;;;;5033047;28;20676;-68
2022/09/16 10:20:39;;;;;;;4.50;3.43;;;;;;;;;;5032972;28;20233;-68
2022/09/16 10:23:13;;;;;;;3.87;3.57;;;;;;;;;;5033893;28;20225;-68
2022/09/16 10:25:40;;;;;;;3.53;3.23;;;;;;;;;;5033319;28;20206;-67
2022/09/16 10:28:21;;;;;;;4.93;3.43;;;;;;;;;;5033062;28;20213;-67
2022/09/16 10:30:49;;;;;;;5.50;3.47;;;;;;;;;;5033502;28;20226;-71
2022/09/16 10:33:20;;;;;;;4.57;3.40;;;;;;;;;;5033319;28;20233;-71
2022/09/16 10:36:00;;;;;;;4.10;3.30;;;;;;;;;;5033024;28;20552;-71
2022/09/16 10:38:34;;;;;;;5.30;3.33;;;;;;;;;;5033156;28;20197;-71
2022/09/16 10:41:14;;;;;;;5.47;3.30;;;;;;;;;;5032991;28;20295;-71
2022/09/16 10:43:46;;;;;;;5.97;3.77;;;;;;;;;;5033527;28;20196;-71
2022/09/16 10:46:15;;;;;;;4.57;3.90;;;;;;;;;;5033012;28;20582;-70
2022/09/16 10:48:41;;;;;;;6.27;3.77;;;;;;;;;;5032633;28;20206;-71
2022/09/16 10:51:20;;;;;;;6.43;3.60;;;;;;;;;;5032802;28;20732;-70
2022/09/16 10:53:51;;;;;;;8.63;3.50;;;;;;;;;;5032910;28;20216;-71
2022/09/16 10:56:19;;;;;;;4.90;4.00;;;;;;;;;;5033181;28;20190;-71
2022/09/16 10:58:45;;;;;;;4.37;2.97;;;;;;;;;;5032681;28;20241;-71
2022/09/16 11:01:17;;;;;;;4.40;3.27;;;;;;;;;;5033148;28;20226;-71
2022/09/16 11:04:10;;;;;;;4.47;2.67;;;;;;;;;;5032714;28;20206;-71
2022/09/16 11:06:54;;;;;;;5.83;3.47;;;;;;;;;;5029179;28;20661;-70
2022/09/16 11:09:28;;;;;;;4.50;2.83;;;;;;;;;;5031275;28;20205;-70
2022/09/16 11:11:55;;;;;;;6.60;2.77;;;;;;;;;;5032666;28;20194;-71
2022/09/16 11:14:31;;;;;;;7.93;3.70;;;;;;;;;;5032531;28;20226;-71
2022/09/16 11:17:17;;;;;;;3.97;2.83;;;;;;;;;;5031829;28;20194;-71
2022/09/16 11:19:43;;;;;;;3.17;2.20;;;;;;;;;;5032979;28;20244;-70
2022/09/16 11:22:09;;;;;;;4.57;2.87;;;;;;;;;;5032997;28;20217;-70
2022/09/16 11:24:48;;;;;;;4.87;2.73;;;;;;;;;;5035127;28;20206;-71
2022/09/16 11:27:30;;;;;;;2.90;2.57;;;;;;;;;;5035893;28;20657;-70
2022/09/16 11:29:56;;;;;;;4.33;2.57;;;;;;;;;;5036211;28;20226;-71
2022/09/16 11:32:30;;;;;;;4.27;2.27;;;;;;;;;;5035984;28;20209;-71
2022/09/16 11:34:56;;;;;;;6.93;2.67;;;;;;;;;;5036117;28;20295;-71
2022/09/16 11:37:32;;;;;;;4.23;2.50;;;;;;;;;;5036064;28;20243;-71
2022/09/16 11:39:58;;;;;;;4.93;2.37;;;;;;;;;;5036092;28;20226;-71
2022/09/16 11:42:34;;;;;;;4.83;2.93;;;;;;;;;;5036028;28;20206;-71
2022/09/16 11:45:19;;;;;;;7.03;2.33;;;;;;;;;;5035573;28;20205;-70
2022/09/16 11:47:54;;;;;;;4.60;2.90;;;;;;;;;;5035805;28;20206;-71
2022/09/16 11:50:40;;;;;;;5.23;2.40;;;;;;;;;;5035652;28;20244;-71
2022/09/16 11:53:06;;;;;;;8.77;2.60;;;;;;;;;;5035577;28;20296;-70
2022/09/16 11:55:32;;;;;;;5.63;2.30;;;;;;;;;;5035413;28;20208;-70
2022/09/16 11:58:00;;;;;;;5.67;2.10;;;;;;;;;;5035975;28;20205;-70
2022/09/16 12:00:29;;;;;;;5.80;2.43;;;;;;;;;;5035680;28;20226;-70
2022/09/16 12:03:15;;;;;;;4.90;1.93;;;;;;;;;;5035557;28;20206;-71
2022/09/16 12:05:48;;;;;;;2.97;1.70;;;;;;;;;;5034095;28;20190;-70
2022/09/16 12:08:21;;;;;;;4.33;1.70;;;;;;;;;;5035668;28;20189;-71
2022/09/16 12:11:20;;;;;;;2.50;1.40;;;;;;;;;;5035470;28;20606;-70
2022/09/16 12:13:52;;;;;;;3.80;1.40;;;;;;;;;;5002016;28;20675;-70
2022/09/16 12:16:24;;;;;;;3.53;1.50;;;;;;;;;;5035858;28;20300;-70
2022/09/16 12:18:52;;;;;;;2.70;1.50;;;;;;;;;;5035458;28;20244;-70
2022/09/16 12:21:30;;;;;;;2.30;1.67;;;;;;;;;;5035086;28;20226;-70
2022/09/16 12:23:59;;;;;;;4.40;1.50;;;;;;;;;;5034806;28;20228;-71
2022/09/16 12:26:31;;;;;;;3.60;1.80;;;;;;;;;;5035327;28;20210;-70
2022/09/16 12:29:09;;;;;;;5.37;2.03;;;;;;;;;;5034770;28;20210;-70
2022/09/16 12:31:38;;;;;;;2.37;1.20;;;;;;;;;;5034842;28;20190;-71
2022/09/16 12:34:09;;;;;;;6.37;1.90;;;;;;;;;;5034659;28;20229;-71
2022/09/16 12:36:37;;;;;;;3.57;1.70;;;;;;;;;;5034998;28;20190;-71
2022/09/16 12:39:03;;;;;;;3.03;1.50;;;;;;;;;;5034928;28;20205;-71
2022/09/16 12:41:49;;;;;;;2.70;1.50;;;;;;;;;;5035068;28;20216;-70
2022/09/16 12:44:34;;;;;;;4.17;1.73;;;;;;;;;;5034701;28;20202;-70
2022/09/16 12:47:15;;;;;;;3.43;1.30;;;;;;;;;;5034801;28;20202;-70
2022/09/16 12:49:45;;;;;;;2.53;1.50;;;;;;;;;;5034723;28;20238;-71
2022/09/16 12:52:24;;;;;;;3.77;1.57;;;;;;;;;;5034885;28;20212;-71
2022/09/16 12:54:59;;;;;;;5.27;1.50;;;;;;;;;;5034018;28;20225;-71
2022/09/16 12:57:40;;;;;;;4.10;1.57;;;;;;;;;;5034705;28;20201;-71
2022/09/16 13:00:19;;;;;;;3.83;1.70;;;;;;;;;;5034446;28;20225;-71
2022/09/16 13:02:48;;;;;;;3.93;1.40;;;;;;;;;;5034639;28;20210;-71
2022/09/16 13:05:19;;;;;;;3.67;1.30;;;;;;;;;;5034555;28;20209;-71
2022/09/16 13:07:49;;;;;;;1.97;1.40;;;;;;;;;;5034453;28;20201;-71
2022/09/16 13:10:17;;;;;;;3.30;1.40;;;;;;;;;;5034814;28;20312;-71
2022/09/16 13:12:49;;;;;;;2.27;1.40;;;;;;;;;;5033891;28;20213;-70
2022/09/16 13:15:27;;;;;;;6.50;1.60;;;;;;;;;;5033705;28;20194;-70
2022/09/16 13:17:54;;;;;;;3.10;1.70;;;;;;;;;;5034121;28;20215;-71
2022/09/16 13:20:27;;;;;;;3.10;1.40;;;;;;;;;;5033874;28;20222;-71
2022/09/16 13:23:15;;;;;;;1.63;1.30;;;;;;;;;;5033011;28;20209;-71
2022/09/16 13:25:49;;;;;;;3.53;1.60;;;;;;;;;;5033928;28;20561;-71
2022/09/16 13:28:34;;;;;;;3.23;1.40;;;;;;;;;;5033637;28;20756;-70
2022/09/16 13:31:10;;;;;;;2.13;1.30;;;;;;;;;;5033917;28;20225;-71
2022/09/16 13:33:36;;;;;;;4.67;1.63;;;;;;;;;;5033966;28;20229;-71
2022/09/16 13:36:04;;;;;;;3.23;1.60;;;;;;;;;;5034512;28;20202;-70
2022/09/16 13:38:38;;;;;;;3.30;1.60;;;;;;;;;;5033897;28;20206;-71
2022/09/16 13:41:05;;;;;;;3.77;1.60;;;;;;;;;;5033425;28;20663;-71
2022/09/16 13:43:36;;;;;;;3.10;1.33;;;;;;;;;;5033631;28;20229;-71
2022/09/16 13:46:02;;;;;;;2.47;1.50;;;;;;;;;;5032730;28;20205;-70
2022/09/16 13:48:33;;;;;;;3.27;1.73;;;;;;;;;;5033508;28;20221;-71
2022/09/16 13:51:00;;;;;;;3.10;1.67;;;;;;;;;;5033293;28;20237;-71
2022/09/16 13:53:27;;;;;;;3.40;1.50;;;;;;;;;;5032895;28;20232;-71
2022/09/16 13:55:56;;;;;;;3.70;1.90;;;;;;;;;;5033154;28;20212;-71
2022/09/16 13:58:29;;;;;;;6.00;1.93;;;;;;;;;;5033438;28;20305;-71
2022/09/16 14:00:58;;;;;;;2.90;1.60;;;;;;;;;;5033138;28;20230;-70
2022/09/16 14:03:31;;;;;;;2.57;1.33;;;;;;;;;;5033467;28;20202;-70
2022/09/16 14:06:05;;;;;;;4.07;1.70;;;;;;;;;;5033355;28;20186;-70
2022/09/16 14:08:31;;;;;;;3.03;1.70;;;;;;;;;;5032915;28;20594;-70
2022/09/16 14:11:16;;;;;;;1.90;1.30;;;;;;;;;;5033852;28;20236;-70
2022/09/16 14:13:56;;;;;;;3.27;1.53;;;;;;;;;;5032750;28;20247;-71
2022/09/16 14:16:26;;;;;;;3.70;1.50;;;;;;;;;;5033196;28;20208;-70
2022/09/16 14:18:55;;;;;;;2.83;1.47;;;;;;;;;;5033071;28;20206;-71
2022/09/16 14:21:23;;;;;;;2.97;1.73;;;;;;;;;;5032946;28;20232;-70
2022/09/16 14:23:49;;;;;;;4.93;1.40;;;;;;;;;;5032918;28;20688;-70
2022/09/16 14:26:17;;;;;;;4.80;1.87;;;;;;;;;;5032594;28;20254;-70
2022/09/16 14:28:43;;;;;;;2.77;1.37;;;;;;;;;;5033086;28;20206;-70
2022/09/16 14:31:13;;;;;;;5.10;1.70;;;;;;;;;;5032954;28;20321;-71
2022/09/16 14:33:50;;;;;;;2.07;1.13;;;;;;;;;;5032853;28;20225;-70
2022/09/16 14:36:25;;;;;;;4.40;1.53;;;;;;;;;;5033088;28;20205;-70
2022/09/16 14:38:56;;;;;;;4.97;1.60;;;;;;;;;;5033044;28;20215;-70
2022/09/16 14:41:25;;;;;;;4.20;1.60;;;;;;;;;;5032702;28;20795;-70
2022/09/16 14:43:53;;;;;;;2.27;1.60;;;;;;;;;;5033489;28;20267;-70
2022/09/16 14:46:19;;;;;;;4.67;1.90;;;;;;;;;;5033538;28;20269;-71
2022/09/16 14:48:46;;;;;;;5.90;1.70;;;;;;;;;;5032768;28;20660;-71
2022/09/16 14:51:18;;;;;;;4.47;1.30;;;;;;;;;;5032716;28;20241;-71
2022/09/16 14:53:54;;;;;;;2.77;1.40;;;;;;;;;;5033509;28;20218;-71
2022/09/16 14:56:20;;;;;;;2.30;1.23;;;;;;;;;;5032842;28;20186;-70
2022/09/16 14:58:47;;;;;;;7.37;1.90;;;;;;;;;;5035341;28;20228;-70
2022/09/16 15:01:26;;;;;;;1.57;1.20;;;;;;;;;;5036891;28;20232;-71